Time;durP1;ratioP1;P1;durP2;ratioP2;P2;SDS_P1;SDS_P2;PMS_P1;PMS_P2;Temp;Humidity;BMP_temperature;BMP_pressure;BME280_temperature;BME280_humidity;BME280_pressure;Samples;Min_cycle;Max_cycle;Signal;HPM_P1;HPM_P2
2023/04/21 00:01:54;;;;;;;73.05;16.77;;;;;;;;;;5074416;28;20213;-67
2023/04/21 00:04:21;;;;;;;72.22;16.45;;;;;;;;;;5074059;28;20251;-67
2023/04/21 00:06:49;;;;;;;75.93;17.55;;;;;;;;;;5072994;28;20208;-67
2023/04/21 00:09:17;;;;;;;71.78;14.70;;;;;;;;;;5073856;28;20225;-67
2023/04/21 00:11:44;;;;;;;73.40;15.90;;;;;;;;;;5073420;28;20223;-67
2023/04/21 00:14:11;;;;;;;72.65;16.05;;;;;;;;;;5073753;28;20208;-67
2023/04/21 00:16:39;;;;;;;73.25;17.08;;;;;;;;;;5074257;28;20209;-67
2023/04/21 00:19:07;;;;;;;76.45;16.98;;;;;;;;;;5072542;28;20236;-68
2023/04/21 00:21:34;;;;;;;74.53;17.83;;;;;;;;;;5073861;28;20213;-67
2023/04/21 00:24:01;;;;;;;75.18;18.40;;;;;;;;;;5073552;28;20235;-67
2023/04/21 00:26:28;;;;;;;76.18;16.80;;;;;;;;;;5073721;28;20670;-67
2023/04/21 00:28:55;;;;;;;73.35;16.42;;;;;;;;;;5072821;28;20225;-67
2023/04/21 00:31:22;;;;;;;74.78;17.23;;;;;;;;;;5074077;28;20209;-67
2023/04/21 00:33:51;;;;;;;76.05;17.90;;;;;;;;;;5073581;28;20688;-66
2023/04/21 00:36:18;;;;;;;75.25;16.65;;;;;;;;;;5073594;28;20210;-67
2023/04/21 00:38:45;;;;;;;75.85;18.95;;;;;;;;;;5071926;28;20713;-67
2023/04/21 00:41:12;;;;;;;75.03;17.45;;;;;;;;;;5072832;28;20232;-66
2023/04/21 00:44:00;;;;;;;75.43;17.52;;;;;;;;;;5072677;28;20229;-67
2023/04/21 00:46:27;;;;;;;75.57;17.55;;;;;;;;;;5073565;28;20205;-67
2023/04/21 00:48:55;;;;;;;78.70;19.48;;;;;;;;;;5072821;28;20724;-67
2023/04/21 00:51:22;;;;;;;79.22;20.10;;;;;;;;;;5073539;28;20201;-67
2023/04/21 00:53:50;;;;;;;76.97;18.92;;;;;;;;;;5073411;28;20201;-67
2023/04/21 00:56:18;;;;;;;79.82;19.92;;;;;;;;;;5072527;28;20205;-67
2023/04/21 00:58:46;;;;;;;78.47;18.30;;;;;;;;;;5072978;28;20263;-67
2023/04/21 01:01:13;;;;;;;82.40;20.25;;;;;;;;;;5073088;28;20220;-67
2023/04/21 01:03:41;;;;;;;82.00;19.13;;;;;;;;;;5072911;28;20274;-67
2023/04/21 01:06:09;;;;;;;82.63;21.25;;;;;;;;;;5073092;28;20221;-67
2023/04/21 01:08:37;;;;;;;82.00;20.13;;;;;;;;;;5071241;28;20225;-67
2023/04/21 01:11:09;;;;;;;81.13;20.05;;;;;;;;;;5072998;28;20205;-67
2023/04/21 01:13:37;;;;;;;84.70;20.45;;;;;;;;;;5072897;28;20692;-67
2023/04/21 01:16:04;;;;;;;79.90;19.77;;;;;;;;;;5072981;28;20205;-68
2023/04/21 01:18:31;;;;;;;82.63;19.30;;;;;;;;;;5072628;28;20221;-67
2023/04/21 01:20:58;;;;;;;82.80;20.80;;;;;;;;;;5072511;28;20681;-68
2023/04/21 01:23:27;;;;;;;83.15;19.98;;;;;;;;;;5072467;28;20225;-68
2023/04/21 01:25:54;;;;;;;81.00;20.17;;;;;;;;;;5072942;28;20306;-67
2023/04/21 01:28:22;;;;;;;80.45;20.05;;;;;;;;;;5071226;28;20213;-68
2023/04/21 01:30:49;;;;;;;80.40;18.67;;;;;;;;;;5071158;28;20205;-68
2023/04/21 01:33:16;;;;;;;80.95;20.55;;;;;;;;;;5071880;28;20197;-68
2023/04/21 01:35:44;;;;;;;77.95;19.15;;;;;;;;;;5072420;28;20215;-68
2023/04/21 01:38:11;;;;;;;81.47;20.67;;;;;;;;;;5072176;28;20236;-68
2023/04/21 01:40:40;;;;;;;84.18;20.48;;;;;;;;;;5071993;28;20588;-67
2023/04/21 01:43:08;;;;;;;76.13;17.98;;;;;;;;;;5072258;28;20228;-67
2023/04/21 01:45:35;;;;;;;82.80;20.50;;;;;;;;;;5072394;28;20250;-67
2023/04/21 01:48:02;;;;;;;88.13;20.63;;;;;;;;;;5072539;28;20214;-67
2023/04/21 01:50:29;;;;;;;91.15;20.92;;;;;;;;;;5071737;28;20228;-67
2023/04/21 01:52:56;;;;;;;83.53;20.23;;;;;;;;;;5071468;28;20197;-68
2023/04/21 01:55:24;;;;;;;81.82;19.88;;;;;;;;;;5072246;28;20674;-68
2023/04/21 01:57:52;;;;;;;92.28;21.05;;;;;;;;;;5072367;28;20597;-68
2023/04/21 02:00:19;;;;;;;88.75;21.48;;;;;;;;;;5071891;28;20231;-68
2023/04/21 02:02:46;;;;;;;99.90;22.25;;;;;;;;;;5072150;28;20221;-67
2023/04/21 02:05:14;;;;;;;94.80;23.60;;;;;;;;;;5071383;28;20292;-67
2023/04/21 02:07:41;;;;;;;88.75;21.65;;;;;;;;;;5072005;28;20205;-68
2023/04/21 02:10:08;;;;;;;90.28;22.08;;;;;;;;;;5072026;28;20225;-67
2023/04/21 02:12:35;;;;;;;102.68;21.85;;;;;;;;;;5070791;28;20300;-68
2023/04/21 02:15:04;;;;;;;87.93;19.83;;;;;;;;;;5071345;28;20231;-68
2023/04/21 02:17:31;;;;;;;99.78;25.15;;;;;;;;;;5072049;28;20205;-68
2023/04/21 02:19:58;;;;;;;86.20;22.65;;;;;;;;;;5071552;28;20229;-67
2023/04/21 02:22:26;;;;;;;126.32;25.15;;;;;;;;;;5071730;28;20693;-67
2023/04/21 02:24:53;;;;;;;119.38;23.15;;;;;;;;;;5071678;28;20221;-68
2023/04/21 02:27:20;;;;;;;127.20;23.27;;;;;;;;;;5071881;28;20211;-68
2023/04/21 02:29:47;;;;;;;89.93;21.30;;;;;;;;;;5070872;28;20225;-67
2023/04/21 02:32:15;;;;;;;162.48;25.48;;;;;;;;;;5071705;28;20204;-68
2023/04/21 02:34:42;;;;;;;123.15;21.50;;;;;;;;;;5071271;28;20211;-67
2023/04/21 02:37:10;;;;;;;169.23;24.98;;;;;;;;;;5071159;28;20215;-68
2023/04/21 02:39:37;;;;;;;89.93;19.45;;;;;;;;;;5071227;28;20227;-67
2023/04/21 02:42:04;;;;;;;95.20;19.80;;;;;;;;;;5072651;28;20205;-68
2023/04/21 02:44:31;;;;;;;85.03;18.70;;;;;;;;;;5075755;28;20225;-68
2023/04/21 02:46:58;;;;;;;128.75;23.73;;;;;;;;;;5075901;28;20201;-67
2023/04/21 02:49:27;;;;;;;138.93;24.00;;;;;;;;;;5075243;28;20602;-67
2023/04/21 02:51:54;;;;;;;112.82;19.73;;;;;;;;;;5075349;28;20205;-67
2023/04/21 02:54:21;;;;;;;196.52;25.88;;;;;;;;;;5075561;28;20673;-67
2023/04/21 02:56:48;;;;;;;121.03;20.35;;;;;;;;;;5074845;28;20204;-67
2023/04/21 02:59:16;;;;;;;196.93;26.60;;;;;;;;;;5074742;28;20228;-67
2023/04/21 03:01:43;;;;;;;86.70;19.48;;;;;;;;;;5074719;28;20258;-68
2023/04/21 03:04:10;;;;;;;163.30;25.40;;;;;;;;;;5075348;28;20229;-68
2023/04/21 03:06:38;;;;;;;82.60;18.80;;;;;;;;;;5075475;28;20576;-67
2023/04/21 03:09:05;;;;;;;190.60;28.52;;;;;;;;;;5075036;28;20225;-66
2023/04/21 03:11:33;;;;;;;120.00;22.45;;;;;;;;;;5075180;28;20205;-68
2023/04/21 03:14:00;;;;;;;171.73;25.42;;;;;;;;;;5075186;28;20204;-67
2023/04/21 03:16:28;;;;;;;126.07;21.95;;;;;;;;;;5074369;28;20201;-67
2023/04/21 03:18:55;;;;;;;104.75;20.73;;;;;;;;;;5074500;28;20229;-68
2023/04/21 03:21:22;;;;;;;133.80;21.67;;;;;;;;;;5074077;28;20205;-68
2023/04/21 03:23:50;;;;;;;89.05;19.02;;;;;;;;;;5074694;28;20229;-68
2023/04/21 03:26:18;;;;;;;136.90;21.55;;;;;;;;;;5074812;28;20209;-68
2023/04/21 03:28:45;;;;;;;92.63;19.80;;;;;;;;;;5074599;28;20724;-67
2023/04/21 03:31:12;;;;;;;196.65;26.15;;;;;;;;;;5074878;28;20209;-68
2023/04/21 03:33:39;;;;;;;85.85;17.73;;;;;;;;;;5074721;28;20205;-68
2023/04/21 03:36:06;;;;;;;97.32;18.20;;;;;;;;;;5074968;28;20592;-68
2023/04/21 03:38:33;;;;;;;128.07;21.30;;;;;;;;;;5074494;28;20351;-65
2023/04/21 03:41:04;;;;;;;94.13;18.45;;;;;;;;;;5074463;28;20212;-68
2023/04/21 03:43:31;;;;;;;131.20;21.42;;;;;;;;;;5074677;28;20225;-67
2023/04/21 03:45:58;;;;;;;135.45;21.42;;;;;;;;;;5074463;28;20604;-68
2023/04/21 03:48:25;;;;;;;132.90;21.38;;;;;;;;;;5074618;28;20209;-67
2023/04/21 03:50:52;;;;;;;140.48;22.75;;;;;;;;;;5073711;28;20205;-68
2023/04/21 03:53:19;;;;;;;97.88;18.67;;;;;;;;;;5073277;28;20701;-67
2023/04/21 03:55:47;;;;;;;92.65;19.92;;;;;;;;;;5074354;28;20205;-67
2023/04/21 03:58:16;;;;;;;95.88;20.08;;;;;;;;;;5074330;28;20693;-67
2023/04/21 04:00:43;;;;;;;97.43;19.95;;;;;;;;;;5073979;28;20219;-67
2023/04/21 04:03:10;;;;;;;84.97;18.77;;;;;;;;;;5073631;28;20205;-67
2023/04/21 04:05:37;;;;;;;116.38;21.08;;;;;;;;;;5074269;28;20205;-67
2023/04/21 04:08:05;;;;;;;108.88;20.00;;;;;;;;;;5074325;28;20205;-67
2023/04/21 04:10:32;;;;;;;84.85;20.05;;;;;;;;;;5073832;28;20221;-67
2023/04/21 04:12:59;;;;;;;79.88;19.00;;;;;;;;;;5074258;28;20228;-67
2023/04/21 04:15:28;;;;;;;107.88;21.13;;;;;;;;;;5074328;28;20292;-67
2023/04/21 04:17:55;;;;;;;124.63;21.92;;;;;;;;;;5073926;28;20205;-67
2023/04/21 04:20:22;;;;;;;124.20;23.77;;;;;;;;;;5073698;28;20246;-67
2023/04/21 04:22:49;;;;;;;87.53;20.48;;;;;;;;;;5073425;28;20223;-67
2023/04/21 04:25:17;;;;;;;108.30;23.33;;;;;;;;;;5073793;28;20236;-68
2023/04/21 04:27:44;;;;;;;108.72;20.48;;;;;;;;;;5074001;28;20669;-67
2023/04/21 04:30:12;;;;;;;106.38;19.48;;;;;;;;;;5073583;28;20231;-67
2023/04/21 04:32:41;;;;;;;112.68;21.65;;;;;;;;;;5073918;28;20300;-67
2023/04/21 04:35:08;;;;;;;94.65;19.83;;;;;;;;;;5073786;28;20570;-67
2023/04/21 04:37:36;;;;;;;98.20;19.63;;;;;;;;;;5073174;28;20209;-68
2023/04/21 04:40:05;;;;;;;109.15;22.00;;;;;;;;;;5073364;28;20225;-67
2023/04/21 04:42:33;;;;;;;98.45;20.85;;;;;;;;;;5073824;28;20205;-67
2023/04/21 04:45:01;;;;;;;106.47;20.33;;;;;;;;;;5073230;28;20741;-67
2023/04/21 04:47:29;;;;;;;96.93;21.17;;;;;;;;;;5073099;28;20208;-68
2023/04/21 04:49:57;;;;;;;90.60;20.63;;;;;;;;;;5073103;28;20226;-68
2023/04/21 04:52:24;;;;;;;97.57;20.95;;;;;;;;;;5073448;28;20206;-67
2023/04/21 04:54:51;;;;;;;93.93;19.88;;;;;;;;;;5073172;28;20212;-67
2023/04/21 04:57:18;;;;;;;94.55;22.27;;;;;;;;;;5073566;28;20611;-67
2023/04/21 04:59:45;;;;;;;104.90;22.88;;;;;;;;;;5072249;28;20233;-67
2023/04/21 05:02:12;;;;;;;105.75;23.48;;;;;;;;;;5072981;28;20215;-67
2023/04/21 05:04:39;;;;;;;92.97;20.48;;;;;;;;;;5072655;28;20221;-68
2023/04/21 05:07:08;;;;;;;89.45;22.23;;;;;;;;;;5072456;28;20587;-67
2023/04/21 05:09:35;;;;;;;95.53;21.27;;;;;;;;;;5072533;28;20235;-67
2023/04/21 05:12:02;;;;;;;89.38;21.30;;;;;;;;;;5072655;28;20561;-68
2023/04/21 05:14:29;;;;;;;85.72;19.90;;;;;;;;;;5073327;28;20207;-68
2023/04/21 05:16:57;;;;;;;88.38;20.30;;;;;;;;;;5072799;28;20559;-68
2023/04/21 05:19:24;;;;;;;96.63;22.65;;;;;;;;;;5072521;28;20231;-68
2023/04/21 05:21:52;;;;;;;86.47;21.02;;;;;;;;;;5072445;28;20212;-67
2023/04/21 05:24:23;;;;;;;90.05;22.45;;;;;;;;;;5071941;28;20258;-68
2023/04/21 05:26:50;;;;;;;88.80;21.52;;;;;;;;;;5072702;28;20295;-68
2023/04/21 05:29:17;;;;;;;86.20;21.48;;;;;;;;;;5072225;28;20721;-68
2023/04/21 05:31:44;;;;;;;83.10;20.58;;;;;;;;;;5072095;28;20209;-67
2023/04/21 05:34:11;;;;;;;80.90;20.00;;;;;;;;;;5072179;28;20240;-68
2023/04/21 05:36:41;;;;;;;81.35;20.00;;;;;;;;;;5072648;28;20227;-68
2023/04/21 05:39:09;;;;;;;83.32;19.75;;;;;;;;;;5072273;28;20225;-68
2023/04/21 05:41:37;;;;;;;83.32;20.33;;;;;;;;;;5072239;28;20258;-67
2023/04/21 05:44:04;;;;;;;85.28;20.90;;;;;;;;;;5072620;28;20225;-68
2023/04/21 05:46:33;;;;;;;83.82;19.88;;;;;;;;;;5072124;28;20207;-68
2023/04/21 05:49:01;;;;;;;85.70;21.23;;;;;;;;;;5072112;28;20229;-68
2023/04/21 05:51:28;;;;;;;84.88;21.50;;;;;;;;;;5071068;28;20208;-68
2023/04/21 05:53:55;;;;;;;81.45;20.70;;;;;;;;;;5071463;28;20205;-68
2023/04/21 05:56:22;;;;;;;80.63;20.23;;;;;;;;;;5070645;28;20205;-68
2023/04/21 05:58:50;;;;;;;84.88;20.90;;;;;;;;;;5071183;28;20252;-68
2023/04/21 06:01:17;;;;;;;81.68;20.60;;;;;;;;;;5071511;28;20211;-67
2023/04/21 06:03:47;;;;;;;84.90;21.65;;;;;;;;;;5072251;28;20556;-68
2023/04/21 06:06:14;;;;;;;85.80;22.02;;;;;;;;;;5071957;28;20221;-68
2023/04/21 06:08:42;;;;;;;83.27;21.03;;;;;;;;;;5071354;28;20225;-68
2023/04/21 06:11:09;;;;;;;79.20;19.10;;;;;;;;;;5072139;28;20800;-68
2023/04/21 06:13:36;;;;;;;81.38;20.58;;;;;;;;;;5072111;28;20228;-68
2023/04/21 06:16:05;;;;;;;82.67;21.23;;;;;;;;;;5071344;28;20213;-68
2023/04/21 06:18:32;;;;;;;82.65;20.23;;;;;;;;;;5071477;28;20578;-67
2023/04/21 06:20:59;;;;;;;82.20;21.03;;;;;;;;;;5072091;28;20205;-68
2023/04/21 06:23:26;;;;;;;79.67;20.23;;;;;;;;;;5071906;28;20832;-69
2023/04/21 06:26:00;;;;;;;81.73;18.80;;;;;;;;;;5071154;28;20493;-68
2023/04/21 06:28:27;;;;;;;80.97;19.50;;;;;;;;;;5071191;28;20493;-68
2023/04/21 06:30:54;;;;;;;81.77;18.47;;;;;;;;;;5071776;28;20458;-69
2023/04/21 06:33:23;;;;;;;80.47;19.37;;;;;;;;;;5072136;28;20443;-69
2023/04/21 06:35:50;;;;;;;79.80;19.53;;;;;;;;;;5071799;28;20444;-68
2023/04/21 06:38:17;;;;;;;79.80;19.73;;;;;;;;;;5071614;28;20542;-68
2023/04/21 06:40:44;;;;;;;77.17;19.73;;;;;;;;;;5071500;28;20449;-68
2023/04/21 06:43:12;;;;;;;82.40;20.60;;;;;;;;;;5071870;28;20454;-68
2023/04/21 06:45:39;;;;;;;80.27;20.30;;;;;;;;;;5071776;28;20867;-69
2023/04/21 06:48:06;;;;;;;83.73;20.40;;;;;;;;;;5071692;28;20451;-69
2023/04/21 06:50:35;;;;;;;81.30;20.37;;;;;;;;;;5071270;28;20479;-68
2023/04/21 06:53:02;;;;;;;83.27;20.47;;;;;;;;;;5071631;28;20504;-69
2023/04/21 06:55:29;;;;;;;80.20;19.37;;;;;;;;;;5071433;28;20454;-69
2023/04/21 06:57:56;;;;;;;77.40;18.40;;;;;;;;;;5071692;28;20443;-68
2023/04/21 07:00:23;;;;;;;77.77;19.20;;;;;;;;;;5071314;28;20477;-69
2023/04/21 07:02:50;;;;;;;76.07;18.60;;;;;;;;;;5071637;28;20449;-69
2023/04/21 07:05:17;;;;;;;75.20;18.40;;;;;;;;;;5071366;28;20486;-69
2023/04/21 07:07:46;;;;;;;78.77;18.30;;;;;;;;;;5071612;28;20447;-69
2023/04/21 07:10:17;;;;;;;74.20;17.90;;;;;;;;;;5070951;28;20507;-69
2023/04/21 07:12:45;;;;;;;75.70;17.50;;;;;;;;;;5071597;28;20455;-69
2023/04/21 07:15:12;;;;;;;73.13;16.13;;;;;;;;;;5071486;28;20439;-70
2023/04/21 07:17:39;;;;;;;72.87;17.17;;;;;;;;;;5071449;28;20455;-69
2023/04/21 07:20:07;;;;;;;72.60;15.47;;;;;;;;;;5070903;28;20471;-68
2023/04/21 07:22:35;;;;;;;72.50;16.00;;;;;;;;;;5071209;28;20655;-69
2023/04/21 07:25:05;;;;;;;72.00;16.13;;;;;;;;;;5071111;28;20487;-69
2023/04/21 07:27:32;;;;;;;72.70;15.43;;;;;;;;;;5071944;28;20455;-69
2023/04/21 07:29:59;;;;;;;72.87;16.00;;;;;;;;;;5074563;28;20479;-69
2023/04/21 07:32:26;;;;;;;72.80;16.57;;;;;;;;;;5075034;28;20450;-69
2023/04/21 07:34:53;;;;;;;75.90;16.47;;;;;;;;;;5074891;28;20447;-69
2023/04/21 07:37:21;;;;;;;72.10;15.80;;;;;;;;;;5075009;28;20447;-70
2023/04/21 07:39:49;;;;;;;70.40;13.50;;;;;;;;;;5074757;28;20819;-69
2023/04/21 07:42:17;;;;;;;67.70;12.00;;;;;;;;;;5074925;28;20807;-69
2023/04/21 07:44:44;;;;;;;69.40;13.63;;;;;;;;;;5074813;28;20860;-69
2023/04/21 07:47:11;;;;;;;72.00;15.63;;;;;;;;;;5074667;28;20454;-69
2023/04/21 07:49:38;;;;;;;70.40;14.10;;;;;;;;;;5074327;28;20471;-70
2023/04/21 07:52:06;;;;;;;68.60;14.90;;;;;;;;;;5074777;28;20479;-70
2023/04/21 07:54:33;;;;;;;69.97;14.40;;;;;;;;;;5074726;28;20439;-69
2023/04/21 07:57:00;;;;;;;69.03;13.97;;;;;;;;;;5074616;28;20452;-69
2023/04/21 07:59:29;;;;;;;69.80;14.37;;;;;;;;;;5074230;28;20467;-69
2023/04/21 08:01:56;;;;;;;67.63;13.87;;;;;;;;;;5074434;28;20883;-69
2023/04/21 08:04:23;;;;;;;70.00;14.53;;;;;;;;;;5074468;28;20451;-70
2023/04/21 08:06:50;;;;;;;69.40;13.80;;;;;;;;;;5074305;28;20944;-70
2023/04/21 08:09:17;;;;;;;66.90;13.40;;;;;;;;;;5073969;28;20466;-70
2023/04/21 08:11:46;;;;;;;67.57;13.60;;;;;;;;;;5074402;28;20451;-69
2023/04/21 08:14:13;;;;;;;67.87;13.40;;;;;;;;;;5074303;28;20447;-69
2023/04/21 08:16:41;;;;;;;67.50;13.00;;;;;;;;;;5074069;28;20828;-70
2023/04/21 08:19:09;;;;;;;66.63;12.53;;;;;;;;;;5073894;28;20473;-70
2023/04/21 08:21:36;;;;;;;68.47;13.03;;;;;;;;;;5074391;28;20443;-69
2023/04/21 08:24:03;;;;;;;67.90;12.47;;;;;;;;;;5074011;28;20982;-69
2023/04/21 08:26:32;;;;;;;67.30;12.60;;;;;;;;;;5073915;28;20491;-70
2023/04/21 08:28:59;;;;;;;69.27;14.40;;;;;;;;;;5073584;28;20525;-70
2023/04/21 08:31:27;;;;;;;68.47;13.70;;;;;;;;;;5073932;28;20497;-69
2023/04/21 08:33:55;;;;;;;68.47;13.27;;;;;;;;;;5074130;28;20827;-69
2023/04/21 08:36:23;;;;;;;67.50;13.13;;;;;;;;;;5073915;28;20881;-69
2023/04/21 08:38:50;;;;;;;69.70;13.53;;;;;;;;;;5073393;28;20471;-69
2023/04/21 08:41:17;;;;;;;68.17;13.37;;;;;;;;;;5073652;28;20443;-69
2023/04/21 08:43:44;;;;;;;68.80;14.87;;;;;;;;;;5073540;28;20450;-69
2023/04/21 08:46:13;;;;;;;70.87;14.37;;;;;;;;;;5073910;28;20578;-69
2023/04/21 08:48:40;;;;;;;69.23;13.20;;;;;;;;;;5073302;28;20468;-69
2023/04/21 08:51:09;;;;;;;66.60;11.17;;;;;;;;;;5073711;28;20443;-69
2023/04/21 08:53:36;;;;;;;65.43;10.93;;;;;;;;;;5073431;28;20898;-69
2023/04/21 08:56:04;;;;;;;65.90;11.87;;;;;;;;;;5073818;28;20856;-69
2023/04/21 08:58:31;;;;;;;66.70;12.07;;;;;;;;;;5073005;28;20520;-67
2023/04/21 09:00:59;;;;;;;66.73;11.60;;;;;;;;;;5073297;28;20636;-69
2023/04/21 09:03:29;;;;;;;66.27;10.60;;;;;;;;;;5073468;28;20447;-69
2023/04/21 09:06:00;;;;;;;71.17;11.60;;;;;;;;;;5073178;28;20532;-69
2023/04/21 09:08:29;;;;;;;62.27;9.00;;;;;;;;;;5072921;28;20527;-69
2023/04/21 09:10:57;;;;;;;64.30;10.63;;;;;;;;;;5072709;28;20455;-69
2023/04/21 09:13:30;;;;;;;63.17;8.60;;;;;;;;;;5072947;28;20443;-69
2023/04/21 09:15:57;;;;;;;63.37;8.50;;;;;;;;;;5073101;28;20435;-69
2023/04/21 09:18:25;;;;;;;62.17;8.00;;;;;;;;;;5072693;28;20966;-69
2023/04/21 09:20:53;;;;;;;63.17;8.27;;;;;;;;;;5072798;28;20443;-69
2023/04/21 09:23:21;;;;;;;61.50;7.20;;;;;;;;;;5072595;28;20473;-69
2023/04/21 09:25:49;;;;;;;62.20;7.53;;;;;;;;;;5073091;28;20483;-68
2023/04/21 09:28:16;;;;;;;62.50;7.50;;;;;;;;;;5072677;28;20493;-69
2023/04/21 09:30:44;;;;;;;61.90;7.97;;;;;;;;;;5072377;28;20526;-68
2023/04/21 09:33:16;;;;;;;63.90;8.23;;;;;;;;;;5072756;28;20440;-69
2023/04/21 09:35:43;;;;;;;63.47;7.73;;;;;;;;;;5072594;28;20443;-69
2023/04/21 09:38:11;;;;;;;62.57;8.57;;;;;;;;;;5072310;28;20453;-69
2023/04/21 09:40:39;;;;;;;62.67;8.27;;;;;;;;;;5072140;28;20493;-69
2023/04/21 09:43:07;;;;;;;61.97;7.40;;;;;;;;;;5072378;28;20538;-68
2023/04/21 09:45:35;;;;;;;61.87;7.20;;;;;;;;;;5072338;28;20479;-69
2023/04/21 09:48:02;;;;;;;62.30;8.40;;;;;;;;;;5072227;28;20450;-70
2023/04/21 09:50:30;;;;;;;63.00;7.70;;;;;;;;;;5071743;28;20587;-69
2023/04/21 09:52:57;;;;;;;61.70;6.73;;;;;;;;;;5071436;28;20451;-69
2023/04/21 09:55:26;;;;;;;62.37;7.80;;;;;;;;;;5072132;28;20940;-69
2023/04/21 09:57:58;;;;;;;63.33;7.70;;;;;;;;;;5072246;28;20443;-69
2023/04/21 10:00:27;;;;;;;63.43;7.00;;;;;;;;;;5071763;28;20952;-69
2023/04/21 10:02:55;;;;;;;62.77;7.40;;;;;;;;;;5071995;28;20964;-68
2023/04/21 10:05:23;;;;;;;61.70;7.90;;;;;;;;;;5072403;28;20493;-69
2023/04/21 10:07:50;;;;;;;60.67;7.10;;;;;;;;;;5072253;28;20530;-70
2023/04/21 10:10:20;;;;;;;62.30;7.00;;;;;;;;;;5071653;28;20463;-69
2023/04/21 10:12:48;;;;;;;61.70;7.03;;;;;;;;;;5072045;28;20565;-69
2023/04/21 10:15:30;;;;;;;60.80;6.83;;;;;;;;;;5071812;28;20962;-68
2023/04/21 10:18:13;;;;;;;60.80;6.80;;;;;;;;;;5072108;28;20451;-70
2023/04/21 10:20:55;;;;;;;62.20;6.23;;;;;;;;;;5071792;28;20509;-69
2023/04/21 10:23:33;;;;;;;62.07;6.53;;;;;;;;;;5069593;28;20839;-69
2023/04/21 10:26:11;;;;;;;60.27;6.20;;;;;;;;;;5071640;28;20476;-70
2023/04/21 10:28:42;;;;;;;59.60;6.60;;;;;;;;;;5071303;28;20477;-70
2023/04/21 10:31:19;;;;;;;60.63;6.00;;;;;;;;;;5071776;28;20965;-69
2023/04/21 10:34:01;;;;;;;61.60;7.20;;;;;;;;;;5071729;28;20474;-69
2023/04/21 10:36:28;;;;;;;61.67;7.20;;;;;;;;;;5071487;28;20450;-69
2023/04/21 10:38:57;;;;;;;60.70;6.77;;;;;;;;;;5071562;28;20637;-70
2023/04/21 10:41:27;;;;;;;60.83;6.80;;;;;;;;;;5071600;28;20450;-69
2023/04/21 10:43:54;;;;;;;60.47;6.50;;;;;;;;;;5071762;28;20443;-69
2023/04/21 10:46:34;;;;;;;60.90;6.93;;;;;;;;;;5071532;28;20479;-70
2023/04/21 10:49:05;;;;;;;61.90;6.70;;;;;;;;;;5071044;28;20520;-70
2023/04/21 10:51:32;;;;;;;62.70;7.60;;;;;;;;;;5071702;28;20443;-70
2023/04/21 10:54:01;;;;;;;66.00;7.20;;;;;;;;;;5071744;28;20454;-70
2023/04/21 10:56:29;;;;;;;60.50;7.00;;;;;;;;;;5071642;28;20439;-69
2023/04/21 10:58:56;;;;;;;61.13;6.93;;;;;;;;;;5071226;28;20467;-70
2023/04/21 11:01:23;;;;;;;61.57;6.80;;;;;;;;;;5071398;28;20443;-70
2023/04/21 11:03:50;;;;;;;59.93;6.00;;;;;;;;;;5074371;28;20529;-69
2023/04/21 11:06:18;;;;;;;59.80;6.07;;;;;;;;;;5075488;28;20485;-70
2023/04/21 11:08:57;;;;;;;61.70;6.70;;;;;;;;;;5075127;28;20554;-69
2023/04/21 11:11:26;;;;;;;60.40;6.43;;;;;;;;;;5075585;28;20456;-69
2023/04/21 11:13:53;;;;;;;61.10;5.80;;;;;;;;;;5075231;28;20447;-70
2023/04/21 11:16:21;;;;;;;59.63;5.70;;;;;;;;;;5075429;28;20443;-70
2023/04/21 11:18:48;;;;;;;60.10;5.83;;;;;;;;;;5074973;28;20834;-70
2023/04/21 11:21:18;;;;;;;59.57;5.57;;;;;;;;;;5075249;28;20450;-70
2023/04/21 11:23:49;;;;;;;59.90;5.57;;;;;;;;;;5075220;28;20509;-70
2023/04/21 11:26:17;;;;;;;61.00;5.97;;;;;;;;;;5074812;28;21029;-71
2023/04/21 11:28:48;;;;;;;60.43;6.20;;;;;;;;;;5074636;28;20478;-70
2023/04/21 11:31:16;;;;;;;58.90;5.13;;;;;;;;;;5075388;28;20465;-70
2023/04/21 11:33:43;;;;;;;59.40;5.30;;;;;;;;;;5074868;28;20447;-69
2023/04/21 11:36:10;;;;;;;59.40;5.43;;;;;;;;;;5074866;28;20439;-71
2023/04/21 11:38:38;;;;;;;59.40;5.63;;;;;;;;;;5074168;28;20832;-70
2023/04/21 11:41:05;;;;;;;60.10;5.67;;;;;;;;;;5075142;28;20443;-69
2023/04/21 11:43:33;;;;;;;58.60;5.40;;;;;;;;;;5074619;28;20461;-70
2023/04/21 11:46:13;;;;;;;62.63;5.87;;;;;;;;;;5074743;28;20489;-70
2023/04/21 11:48:40;;;;;;;60.77;5.10;;;;;;;;;;5074262;28;20471;-70
2023/04/21 11:51:14;;;;;;;58.47;4.27;;;;;;;;;;5074617;28;20469;-71
2023/04/21 11:53:41;;;;;;;59.10;4.80;;;;;;;;;;5074568;28;20450;-71
2023/04/21 11:56:10;;;;;;;59.17;5.20;;;;;;;;;;5074640;28;20444;-70
2023/04/21 11:58:38;;;;;;;59.10;4.80;;;;;;;;;;5074204;28;20471;-71
2023/04/21 12:01:08;;;;;;;58.87;4.60;;;;;;;;;;5074597;28;20451;-70
2023/04/21 12:03:36;;;;;;;58.17;4.60;;;;;;;;;;5074505;28;20504;-71
2023/04/21 12:06:05;;;;;;;59.20;4.70;;;;;;;;;;5074370;28;20489;-70
2023/04/21 12:08:32;;;;;;;58.87;4.73;;;;;;;;;;5073940;28;20482;-70
2023/04/21 12:11:00;;;;;;;59.30;5.17;;;;;;;;;;5074569;28;20542;-71
2023/04/21 12:13:28;;;;;;;57.60;3.93;;;;;;;;;;5074473;28;20443;-71
2023/04/21 12:15:55;;;;;;;58.60;4.20;;;;;;;;;;5073400;28;20444;-71
2023/04/21 12:18:22;;;;;;;58.77;4.60;;;;;;;;;;5073855;28;20447;-70
2023/04/21 12:20:51;;;;;;;58.20;4.80;;;;;;;;;;5073855;28;20959;-71
2023/04/21 12:23:19;;;;;;;59.00;4.87;;;;;;;;;;5074038;28;20850;-71
2023/04/21 12:25:46;;;;;;;63.00;4.85;;;;;;;;;;5070437;28;20590;-71
2023/04/21 12:28:16;;;;;;;58.10;4.20;;;;;;;;;;5074092;28;20209;-71
2023/04/21 12:30:43;;;;;;;58.13;4.10;;;;;;;;;;5073230;28;20448;-70
2023/04/21 12:33:12;;;;;;;58.50;4.57;;;;;;;;;;5073313;28;20455;-69
2023/04/21 12:35:39;;;;;;;58.77;4.60;;;;;;;;;;5073666;28;20451;-70
2023/04/21 12:38:07;;;;;;;59.37;4.60;;;;;;;;;;5073321;28;20890;-70
2023/04/21 12:40:34;;;;;;;59.07;4.67;;;;;;;;;;5073152;28;20463;-70
2023/04/21 12:43:01;;;;;;;58.57;4.60;;;;;;;;;;5073406;28;20450;-71
2023/04/21 12:45:30;;;;;;;58.87;4.47;;;;;;;;;;5073242;28;20462;-70
2023/04/21 12:47:58;;;;;;;58.80;4.73;;;;;;;;;;5073386;28;20479;-70
2023/04/21 12:50:25;;;;;;;59.77;4.43;;;;;;;;;;5073096;28;20524;-70
2023/04/21 12:52:54;;;;;;;60.40;4.70;;;;;;;;;;5073222;28;20447;-70
2023/04/21 12:55:22;;;;;;;59.57;4.10;;;;;;;;;;5073398;28;20812;-70
2023/04/21 12:57:51;;;;;;;57.93;4.23;;;;;;;;;;5073204;28;20449;-70
2023/04/21 13:00:18;;;;;;;57.47;4.40;;;;;;;;;;5072837;28;20471;-70
2023/04/21 13:02:45;;;;;;;58.90;4.97;;;;;;;;;;5073396;28;20819;-71
2023/04/21 13:05:13;;;;;;;58.60;3.50;;;;;;;;;;5073196;28;20447;-71
2023/04/21 13:07:41;;;;;;;57.77;3.60;;;;;;;;;;5073045;28;20479;-71
2023/04/21 13:10:08;;;;;;;58.27;3.83;;;;;;;;;;5072721;28;20975;-71
2023/04/21 13:12:37;;;;;;;58.13;4.53;;;;;;;;;;5072963;28;20555;-70
2023/04/21 13:15:04;;;;;;;59.10;4.63;;;;;;;;;;5070305;28;20836;-71
2023/04/21 13:17:32;;;;;;;57.77;3.97;;;;;;;;;;5072912;28;20439;-70
2023/04/21 13:19:59;;;;;;;58.90;4.60;;;;;;;;;;5072505;28;20947;-71
2023/04/21 13:22:26;;;;;;;59.90;5.13;;;;;;;;;;5073006;28;20458;-70
2023/04/21 13:24:53;;;;;;;58.93;5.10;;;;;;;;;;5072586;28;20979;-70
2023/04/21 13:27:20;;;;;;;58.37;4.20;;;;;;;;;;5072508;28;20494;-70
2023/04/21 13:29:49;;;;;;;58.30;4.63;;;;;;;;;;5072318;28;20470;-70
2023/04/21 13:32:16;;;;;;;57.80;3.57;;;;;;;;;;5072630;28;20864;-70
2023/04/21 13:34:43;;;;;;;57.73;3.77;;;;;;;;;;5072505;28;20447;-70
2023/04/21 13:37:14;;;;;;;58.20;3.60;;;;;;;;;;5072522;28;20440;-70
2023/04/21 13:39:42;;;;;;;57.63;3.67;;;;;;;;;;5071887;28;20554;-71
2023/04/21 13:42:09;;;;;;;58.13;4.40;;;;;;;;;;5072342;28;20449;-70
2023/04/21 13:44:36;;;;;;;58.07;4.03;;;;;;;;;;5072390;28;20501;-71
2023/04/21 13:47:05;;;;;;;58.17;3.60;;;;;;;;;;5072288;28;20911;-71
2023/04/21 13:49:32;;;;;;;57.87;4.10;;;;;;;;;;5071758;28;20467;-72
2023/04/21 13:51:59;;;;;;;57.03;3.17;;;;;;;;;;5072105;28;20962;-72
2023/04/21 13:54:26;;;;;;;58.37;4.10;;;;;;;;;;5072022;28;20450;-71
2023/04/21 13:56:54;;;;;;;57.47;3.80;;;;;;;;;;5071776;28;20494;-71
2023/04/21 13:59:21;;;;;;;58.17;4.27;;;;;;;;;;5069213;28;20851;-71
2023/04/21 14:01:48;;;;;;;58.93;3.77;;;;;;;;;;5072076;28;20443;-72
2023/04/21 14:04:17;;;;;;;57.67;3.90;;;;;;;;;;5071734;28;20454;-71
2023/04/21 14:06:44;;;;;;;57.60;3.70;;;;;;;;;;5072233;28;20529;-71
2023/04/21 14:09:11;;;;;;;57.57;3.60;;;;;;;;;;5071380;28;20478;-70
2023/04/21 14:11:39;;;;;;;57.60;3.30;;;;;;;;;;5071974;28;20550;-71
2023/04/21 14:14:06;;;;;;;58.20;3.60;;;;;;;;;;5071613;28;20890;-71
2023/04/21 14:16:33;;;;;;;57.40;3.10;;;;;;;;;;5071839;28;20439;-73
2023/04/21 14:19:00;;;;;;;58.10;3.80;;;;;;;;;;5071328;28;20474;-72
2023/04/21 14:21:28;;;;;;;57.30;3.50;;;;;;;;;;5071559;28;20448;-72
2023/04/21 14:23:56;;;;;;;58.00;4.10;;;;;;;;;;5071601;28;20455;-71
2023/04/21 14:26:23;;;;;;;58.00;3.90;;;;;;;;;;5071539;28;20970;-72